Time;durP1;ratioP1;P1;durP2;ratioP2;P2;SDS_P1;SDS_P2;PMS_P1;PMS_P2;Temp;Humidity;BMP_temperature;BMP_pressure;BME280_temperature;BME280_humidity;BME280_pressure;Samples;Min_cycle;Max_cycle;Signal;HPM_P1;HPM_P2
2024/02/16 00:02:04;;;;;;;19.45;5.00;;;;;;;11.35;100.00;99728.66;5097311;28;20039;-70
2024/02/16 00:04:30;;;;;;;31.00;6.13;;;;;;;11.33;100.00;99726.16;5066988;28;20097;-70
2024/02/16 00:06:56;;;;;;;20.42;5.13;;;;;;;11.33;100.00;99742.84;5060594;28;20158;-70
2024/02/16 00:09:22;;;;;;;28.15;5.93;;;;;;;11.33;100.00;99742.84;5067950;28;20088;-70
2024/02/16 00:11:50;;;;;;;21.88;5.13;;;;;;;11.36;100.00;99753.31;5059137;28;20037;-70
2024/02/16 00:14:15;;;;;;;23.88;5.03;;;;;;;11.36;100.00;99753.31;5055773;28;20099;-70
2024/02/16 00:16:41;;;;;;;23.30;4.90;;;;;;;11.38;100.00;99766.94;5080824;28;20034;-70
2024/02/16 00:19:06;;;;;;;24.65;5.13;;;;;;;11.39;100.00;99761.06;5071433;28;20039;-71
2024/02/16 00:21:32;;;;;;;29.05;5.55;;;;;;;11.41;100.00;99758.75;5055054;28;20504;-70
2024/02/16 00:23:57;;;;;;;22.45;5.53;;;;;;;11.45;100.00;99766.47;5071554;28;20028;-70
2024/02/16 00:26:23;;;;;;;20.42;5.07;;;;;;;11.45;100.00;99761.75;5071599;28;20020;-70
2024/02/16 00:28:48;;;;;;;22.45;5.50;;;;;;;11.49;100.00;99757.19;5075113;28;20076;-70
2024/02/16 00:31:14;;;;;;;22.00;5.75;;;;;;;11.51;100.00;99760.47;5064613;28;20092;-70
2024/02/16 00:33:39;;;;;;;23.25;5.93;;;;;;;11.53;100.00;99755.41;5087716;28;20053;-70
2024/02/16 00:36:05;;;;;;;25.95;5.90;;;;;;;11.55;100.00;99760.66;5054613;28;20035;-70
2024/02/16 00:38:30;;;;;;;19.38;5.15;;;;;;;11.54;100.00;99765.38;5037840;28;20024;-70
2024/02/16 00:40:56;;;;;;;22.02;5.53;;;;;;;11.56;100.00;99773.41;5063360;28;20028;-70
2024/02/16 00:43:21;;;;;;;27.40;5.90;;;;;;;11.56;100.00;99774.25;5067724;28;20516;-70
2024/02/16 00:45:48;;;;;;;17.58;4.28;;;;;;;11.60;100.00;99771.63;5040409;28;20089;-70
2024/02/16 00:48:14;;;;;;;19.75;5.30;;;;;;;11.61;100.00;99767.72;5051215;28;20485;-70
2024/02/16 00:50:39;;;;;;;23.60;5.18;;;;;;;11.63;100.00;99765.44;5095343;28;20051;-70
2024/02/16 00:53:04;;;;;;;19.60;4.43;;;;;;;11.65;100.00;99767.91;5079812;28;20036;-70
2024/02/16 00:55:30;;;;;;;17.00;5.10;;;;;;;11.66;100.00;99770.34;5048416;28;20031;-71
2024/02/16 00:57:57;;;;;;;13.60;4.35;;;;;;;11.69;100.00;99775.28;5072255;28;20023;-70
2024/02/16 01:00:25;;;;;;;18.95;5.03;;;;;;;11.68;100.00;99776.44;5055137;28;20024;-70
2024/02/16 01:02:52;;;;;;;20.80;4.65;;;;;;;11.71;100.00;99774.97;5080278;28;20040;-70
2024/02/16 01:05:18;;;;;;;19.27;5.03;;;;;;;11.70;100.00;99774.16;5071963;28;20059;-70
2024/02/16 01:07:43;;;;;;;17.63;4.78;;;;;;;11.72;100.00;99774.63;5066422;28;20032;-70
2024/02/16 01:10:09;;;;;;;22.60;4.95;;;;;;;11.73;100.00;99781.84;5081529;28;20402;-70
2024/02/16 01:12:35;;;;;;;21.17;4.70;;;;;;;11.74;100.00;99786.28;5071784;28;20032;-70
2024/02/16 01:15:00;;;;;;;15.93;4.43;;;;;;;11.76;100.00;99786.78;5056298;28;20035;-70
2024/02/16 01:17:26;;;;;;;18.50;5.03;;;;;;;11.77;100.00;99791.19;5087830;28;20050;-70
2024/02/16 01:19:51;;;;;;;15.20;4.07;;;;;;;11.77;100.00;99796.75;5062810;28;20114;-70
2024/02/16 01:22:18;;;;;;;21.27;5.07;;;;;;;11.79;100.00;99802.81;5071734;28;20597;-70
2024/02/16 01:24:43;;;;;;;17.60;4.55;;;;;;;11.77;100.00;99807.88;5047694;28;20032;-70
2024/02/16 01:27:09;;;;;;;14.02;4.63;;;;;;;11.79;100.00;99811.19;5070277;28;20541;-70
2024/02/16 01:29:34;;;;;;;23.02;5.38;;;;;;;11.79;100.00;99811.19;5055585;28;20039;-70
2024/02/16 01:32:00;;;;;;;20.25;4.82;;;;;;;11.80;100.00;99810.03;5073730;28;20032;-70
2024/02/16 01:34:25;;;;;;;19.27;4.97;;;;;;;11.80;100.00;99806.44;5055244;28;20039;-70
2024/02/16 01:36:50;;;;;;;19.98;5.10;;;;;;;11.80;100.00;99810.03;5090328;28;20028;-70
2024/02/16 01:39:16;;;;;;;20.73;5.25;;;;;;;11.83;100.00;99817.72;5065222;28;20278;-70
2024/02/16 01:41:41;;;;;;;19.05;6.18;;;;;;;11.81;100.00;99822.81;5041332;28;20036;-70
2024/02/16 01:44:07;;;;;;;14.63;4.45;;;;;;;11.82;100.00;99826.41;5060499;28;20043;-70
2024/02/16 01:46:33;;;;;;;19.73;5.05;;;;;;;11.82;100.00;99826.41;5056310;28;20028;-70
2024/02/16 01:48:59;;;;;;;24.63;5.60;;;;;;;11.82;100.00;99837.53;5047266;28;20036;-71
2024/02/16 01:51:25;;;;;;;15.80;4.82;;;;;;;11.81;100.00;99839.50;5060598;28;20501;-70
2024/02/16 01:53:51;;;;;;;20.13;5.50;;;;;;;11.81;100.00;99842.28;5057632;28;20450;-70
2024/02/16 01:56:16;;;;;;;24.40;4.93;;;;;;;11.83;100.00;99853.09;5063823;28;20032;-70
2024/02/16 01:58:42;;;;;;;17.17;4.40;;;;;;;11.83;100.00;99855.88;5048524;28;20504;-70
2024/02/16 02:01:07;;;;;;;17.92;4.85;;;;;;;11.82;100.00;99866.19;5086536;28;20040;-69
2024/02/16 02:03:34;;;;;;;22.27;4.97;;;;;;;11.84;100.00;99866.69;5034147;28;20043;-70
2024/02/16 02:06:00;;;;;;;16.85;4.90;;;;;;;11.84;100.00;99861.13;5063808;28;20054;-70
2024/02/16 02:08:26;;;;;;;26.73;5.35;;;;;;;11.85;100.00;99876.69;5081215;28;20028;-70
2024/02/16 02:10:51;;;;;;;22.33;5.18;;;;;;;11.84;100.00;99871.44;5058397;28;20029;-70
2024/02/16 02:13:19;;;;;;;25.20;5.95;;;;;;;11.82;100.00;99880.09;5083905;28;20035;-70
2024/02/16 02:15:45;;;;;;;20.58;5.20;;;;;;;11.84;100.00;99879.78;5078425;28;20048;-70
2024/02/16 02:18:11;;;;;;;19.08;4.45;;;;;;;11.84;100.00;99879.78;5064694;28;20542;-70
2024/02/16 02:20:36;;;;;;;19.70;4.93;;;;;;;11.85;100.00;99887.81;5072463;28;20024;-70
2024/02/16 02:23:03;;;;;;;19.88;4.72;;;;;;;11.84;100.00;99886.16;5053942;28;20032;-70
2024/02/16 02:25:29;;;;;;;15.85;4.63;;;;;;;11.85;100.00;99893.38;5036640;28;20028;-70
2024/02/16 02:27:55;;;;;;;21.90;5.15;;;;;;;11.85;100.00;99903.66;5038668;28;20046;-70
2024/02/16 02:30:21;;;;;;;16.80;5.63;;;;;;;11.85;100.00;99904.53;5030228;28;20072;-70
2024/02/16 02:32:47;;;;;;;31.05;6.20;;;;;;;11.86;100.00;99905.34;5032475;28;20461;-70
2024/02/16 02:35:14;;;;;;;25.40;4.80;;;;;;;11.84;100.00;99913.97;5073689;28;20024;-70
2024/02/16 02:37:40;;;;;;;21.63;6.13;;;;;;;11.82;100.00;99899.56;5042710;28;20039;-70
2024/02/16 02:40:08;;;;;;;19.45;5.38;;;;;;;11.84;100.00;99913.97;5059156;28;20055;-70
2024/02/16 02:42:34;;;;;;;22.67;5.50;;;;;;;11.84;100.00;99913.97;5085395;28;20113;-70
2024/02/16 02:44:59;;;;;;;24.42;5.57;;;;;;;11.84;100.00;99913.97;5053190;28;20028;-70
2024/02/16 02:47:25;;;;;;;26.23;5.35;;;;;;;11.84;100.00;99919.56;5052825;28;20110;-70
2024/02/16 02:49:50;;;;;;;27.02;5.65;;;;;;;11.84;100.00;99913.16;5041101;28;20103;-70
2024/02/16 02:52:16;;;;;;;20.10;4.85;;;;;;;11.85;100.00;99912.03;5071957;28;20024;-70
2024/02/16 02:54:41;;;;;;;20.90;5.22;;;;;;;11.86;100.00;99919.25;5074645;28;20036;-70
2024/02/16 02:57:07;;;;;;;20.05;5.13;;;;;;;11.84;100.00;99925.13;5055653;28;20027;-70
2024/02/16 02:59:32;;;;;;;19.80;5.38;;;;;;;11.87;100.00;99931.19;5089001;28;20032;-70
2024/02/16 03:01:58;;;;;;;22.52;6.25;;;;;;;11.84;100.00;99929.88;5089812;28;20511;-70
2024/02/16 03:04:23;;;;;;;25.17;5.13;;;;;;;11.85;100.00;99925.94;5063414;28;20024;-70
2024/02/16 03:06:51;;;;;;;25.05;5.75;;;;;;;11.83;100.00;99934.56;5080232;28;20032;-70
2024/02/16 03:09:17;;;;;;;24.92;5.88;;;;;;;11.87;100.00;99945.09;5052168;28;20039;-71
2024/02/16 03:11:42;;;;;;;26.05;7.07;;;;;;;11.85;100.00;99949.03;5070641;28;20024;-70
2024/02/16 03:14:08;;;;;;;15.68;4.65;;;;;;;11.86;100.00;99960.97;5060799;28;20020;-70
2024/02/16 03:16:34;;;;;;;19.05;5.70;;;;;;;11.85;100.00;99965.72;5068477;28;20028;-70
2024/02/16 03:18:59;;;;;;;18.25;5.50;;;;;;;11.83;100.00;99970.75;5046140;28;20035;-71
2024/02/16 03:21:25;;;;;;;17.15;4.72;;;;;;;11.82;100.00;99987.78;5054275;28;20031;-70
2024/02/16 03:23:50;;;;;;;18.75;5.78;;;;;;;11.82;100.00;99994.16;5089147;28;20024;-70
2024/02/16 03:26:16;;;;;;;12.98;5.38;;;;;;;11.81;100.00;99997.25;5063580;28;20028;-70
2024/02/16 03:28:47;;;;;;;9.35;4.13;;;;;;;11.81;100.00;100003.66;5043060;28;20110;-71
2024/02/16 03:31:19;;;;;;;12.80;4.18;;;;;;;11.78;100.00;100009.84;5080172;28;20028;-70
2024/02/16 03:33:45;;;;;;;8.77;3.78;;;;;;;11.78;100.00;100023.75;5044905;28;20060;-70
2024/02/16 03:36:12;;;;;;;7.18;3.47;;;;;;;11.76;100.00;100033.56;5059094;28;20362;-71
2024/02/16 03:38:41;;;;;;;6.68;2.95;;;;;;;11.77;100.00;100041.56;5051691;28;20028;-70
2024/02/16 03:41:07;;;;;;;7.10;2.92;;;;;;;11.73;100.00;100040.56;5062215;28;20035;-70
2024/02/16 03:43:32;;;;;;;4.57;2.25;;;;;;;11.72;100.00;100052.00;5072917;28;20392;-70
2024/02/16 03:45:58;;;;;;;2.67;1.52;;;;;;;11.71;100.00;100058.69;5063523;28;20028;-70
2024/02/16 03:48:23;;;;;;;3.90;1.50;;;;;;;11.68;100.00;100054.59;5076048;28;20109;-70
2024/02/16 03:50:49;;;;;;;2.58;1.00;;;;;;;11.66;100.00;100056.84;5082965;28;20089;-70
2024/02/16 03:53:14;;;;;;;1.83;0.98;;;;;;;11.67;100.00;100058.47;5066482;28;20481;-70
2024/02/16 03:55:39;;;;;;;1.90;0.80;;;;;;;11.63;100.00;100060.25;5071131;28;20031;-70
2024/02/16 03:58:05;;;;;;;2.58;0.80;;;;;;;11.60;100.00;100055.31;5099425;28;20648;-70
2024/02/16 04:00:32;;;;;;;3.25;0.98;;;;;;;11.58;100.00;100054.78;5066182;28;20032;-70
2024/02/16 04:02:57;;;;;;;2.05;0.70;;;;;;;11.56;100.00;100066.25;5072842;28;20125;-70
2024/02/16 04:05:23;;;;;;;2.80;0.70;;;;;;;11.53;100.00;100071.59;5054451;28;20020;-70
2024/02/16 04:07:49;;;;;;;2.08;0.55;;;;;;;11.49;100.00;100090.03;5048285;28;20031;-70
2024/02/16 04:10:14;;;;;;;1.75;0.50;;;;;;;11.49;100.00;100104.75;5051934;28;20043;-70
2024/02/16 04:12:39;;;;;;;1.25;0.65;;;;;;;11.50;100.00;100103.63;5063858;28;20017;-70
2024/02/16 04:15:06;;;;;;;3.05;0.68;;;;;;;11.46;100.00;100119.28;5066393;28;20389;-70
2024/02/16 04:17:31;;;;;;;2.75;0.80;;;;;;;11.44;100.00;100117.94;5045650;28;20040;-70
2024/02/16 04:19:57;;;;;;;1.55;0.80;;;;;;;11.38;100.00;100118.06;5031766;28;20040;-70
2024/02/16 04:22:22;;;;;;;3.00;0.80;;;;;;;11.41;100.00;100127.72;5069097;28;20039;-70
2024/02/16 04:24:48;;;;;;;1.73;0.70;;;;;;;11.40;100.00;100128.88;5054847;28;20028;-70
2024/02/16 04:27:13;;;;;;;2.92;0.80;;;;;;;11.41;100.00;100134.13;5068817;28;20035;-70
2024/02/16 04:29:38;;;;;;;1.95;0.68;;;;;;;11.42;100.00;100134.94;5072002;28;20031;-70
2024/02/16 04:32:04;;;;;;;5.03;1.15;;;;;;;11.40;100.00;100142.78;5035947;28;20074;-71
2024/02/16 04:34:29;;;;;;;5.13;1.08;;;;;;;11.37;100.00;100147.00;5105589;28;20066;-70
2024/02/16 04:36:55;;;;;;;4.10;1.13;;;;;;;11.29;100.00;100155.22;5075103;28;20035;-70
2024/02/16 04:39:20;;;;;;;2.05;1.08;;;;;;;11.33;100.00;100154.28;5070246;28;20024;-70
2024/02/16 04:41:46;;;;;;;3.00;1.10;;;;;;;11.33;100.00;100159.84;5067433;28;20024;-70
2024/02/16 04:44:12;;;;;;;3.78;1.25;;;;;;;11.33;100.00;100159.84;5075384;28;20090;-70
2024/02/16 04:46:38;;;;;;;4.35;1.33;;;;;;;11.31;100.00;100159.34;5050235;28;20039;-70
2024/02/16 04:49:03;;;;;;;7.63;2.03;;;;;;;11.31;100.00;100170.47;5058450;28;20056;-70
2024/02/16 04:51:29;;;;;;;5.10;1.50;;;;;;;11.33;100.00;100175.72;5088301;28;20028;-70
2024/02/16 04:53:54;;;;;;;2.65;1.63;;;;;;;11.28;100.00;100187.78;5086920;28;20489;-70
2024/02/16 04:56:20;;;;;;;6.43;1.67;;;;;;;11.30;100.00;100188.28;5038302;28;20038;-70
2024/02/16 04:58:45;;;;;;;4.63;1.70;;;;;;;11.30;100.00;100198.56;5073970;28;20672;-70
2024/02/16 05:01:12;;;;;;;3.47;1.60;;;;;;;11.26;100.00;100203.94;5089602;28;20073;-70
2024/02/16 05:03:40;;;;;;;4.28;1.60;;;;;;;11.22;100.00;100202.88;5082622;28;20115;-70
2024/02/16 05:06:05;;;;;;;4.90;1.50;;;;;;;11.19;100.00;100209.88;5056204;28;20024;-70
2024/02/16 05:08:31;;;;;;;6.03;1.92;;;;;;;11.19;100.00;100220.16;5085806;28;20549;-70
2024/02/16 05:10:56;;;;;;;5.53;1.92;;;;;;;11.19;100.00;100229.31;5067662;28;20417;-70
2024/02/16 05:13:22;;;;;;;5.70;2.15;;;;;;;11.21;100.00;100233.78;5073023;28;20024;-70
2024/02/16 05:15:48;;;;;;;6.25;2.50;;;;;;;11.16;100.00;100248.56;5095926;28;20369;-70
2024/02/16 05:18:14;;;;;;;6.20;2.15;;;;;;;11.18;100.00;100251.88;5058217;28;20048;-70
2024/02/16 05:20:40;;;;;;;7.43;2.40;;;;;;;11.19;100.00;100259.09;5074292;28;20036;-70
2024/02/16 05:23:05;;;;;;;5.72;2.50;;;;;;;11.15;100.00;100258.06;5071868;28;20028;-70
2024/02/16 05:25:31;;;;;;;7.85;2.22;;;;;;;11.18;100.00;100268.56;5064644;28;20028;-70
2024/02/16 05:27:56;;;;;;;6.07;2.25;;;;;;;11.16;100.00;100265.25;5051883;28;20024;-70
2024/02/16 05:30:22;;;;;;;4.90;2.42;;;;;;;11.16;100.00;100281.94;5086642;28;20039;-70
2024/02/16 05:32:48;;;;;;;10.38;2.92;;;;;;;11.17;100.00;100278.84;5059835;28;20035;-70
2024/02/16 05:35:14;;;;;;;9.07;3.30;;;;;;;11.15;100.00;100285.84;5089510;28;20031;-70
2024/02/16 05:37:44;;;;;;;10.52;3.70;;;;;;;11.15;100.00;100289.44;5054018;28;20036;-70
2024/02/16 05:40:21;;;;;;;9.68;4.00;;;;;;;11.16;100.00;100298.59;5079219;28;20050;-70
2024/02/16 05:42:47;;;;;;;9.95;3.78;;;;;;;11.14;100.00;100303.63;5080127;28;20475;-70
2024/02/16 05:45:13;;;;;;;10.20;3.55;;;;;;;11.17;100.00;100297.47;5047675;28;20024;-70
2024/02/16 05:47:38;;;;;;;9.05;3.47;;;;;;;11.17;100.00;100297.47;5062225;28;20054;-70
2024/02/16 05:50:05;;;;;;;11.48;4.00;;;;;;;11.09;100.00;100307.34;5062861;28;20483;-70
2024/02/16 05:52:30;;;;;;;13.15;3.92;;;;;;;11.14;100.00;100311.97;5053022;28;20040;-70
2024/02/16 05:54:56;;;;;;;11.90;4.00;;;;;;;11.13;100.00;100321.44;5052603;28;20376;-70
2024/02/16 05:57:21;;;;;;;17.48;4.75;;;;;;;11.11;100.00;100323.69;5058064;28;20474;-70
2024/02/16 05:59:47;;;;;;;13.70;4.20;;;;;;;11.11;100.00;100332.03;5064020;28;20028;-70
2024/02/16 06:02:12;;;;;;;16.20;5.15;;;;;;;11.09;100.00;100337.09;5068994;28;20028;-70
2024/02/16 06:04:39;;;;;;;14.02;4.57;;;;;;;11.09;100.00;100345.44;5086523;28;20047;-70
2024/02/16 06:07:04;;;;;;;12.82;4.50;;;;;;;11.11;100.00;100351.50;5058427;28;20028;-70
2024/02/16 06:09:33;;;;;;;13.07;3.90;;;;;;;11.07;100.00;100361.56;5070159;28;20396;-70
2024/02/16 06:12:03;;;;;;;21.42;4.88;;;;;;;11.06;100.00;100371.88;5066117;28;20032;-70
2024/02/16 06:14:30;;;;;;;14.80;3.45;;;;;;;11.04;100.00;100381.63;5099189;28;20425;-70
2024/02/16 06:16:55;;;;;;;16.45;3.08;;;;;;;11.01;100.00;100380.28;5051222;28;20037;-70
2024/02/16 06:19:21;;;;;;;15.57;3.10;;;;;;;10.99;100.00;100390.03;5033205;28;20067;-70
2024/02/16 06:21:46;;;;;;;18.30;3.10;;;;;;;11.01;100.00;100385.84;5100608;28;20488;-70
2024/02/16 06:24:12;;;;;;;15.93;3.38;;;;;;;10.95;100.00;100395.38;5071732;28;20036;-70
2024/02/16 06:26:37;;;;;;;11.60;3.35;;;;;;;10.94;100.00;100404.81;5064487;28;20400;-70
2024/02/16 06:29:03;;;;;;;12.90;3.42;;;;;;;10.95;100.00;100406.50;5097129;28;20088;-70
2024/02/16 06:31:28;;;;;;;11.65;3.30;;;;;;;10.88;100.00;100415.16;5027000;28;20074;-70
2024/02/16 06:33:54;;;;;;;14.38;3.15;;;;;;;10.91;100.00;100419.31;5072594;28;20032;-70
2024/02/16 06:36:19;;;;;;;15.95;3.22;;;;;;;10.90;100.00;100429.59;5067758;28;20038;-70
2024/02/16 06:38:45;;;;;;;18.52;3.17;;;;;;;10.84;100.00;100429.97;5083482;28;20085;-70
2024/02/16 06:41:12;;;;;;;16.77;2.90;;;;;;;10.88;100.00;100431.03;5080582;28;20480;-70
2024/02/16 06:43:37;;;;;;;17.50;2.78;;;;;;;10.87;100.00;100435.75;5064651;28;20404;-70
2024/02/16 06:46:03;;;;;;;15.60;2.63;;;;;;;10.87;100.00;100446.88;5074909;28;20028;-70
2024/02/16 06:48:28;;;;;;;15.38;2.85;;;;;;;10.84;100.00;100450.25;5058251;28;20120;-70
2024/02/16 06:50:54;;;;;;;11.55;2.80;;;;;;;10.80;100.00;100445.56;5054427;28;20033;-70
2024/02/16 06:53:19;;;;;;;15.68;2.85;;;;;;;10.80;100.00;100454.72;5034259;28;20033;-70
2024/02/16 06:55:45;;;;;;;20.00;2.97;;;;;;;10.80;100.00;100462.25;5042264;28;20111;-70
2024/02/16 06:58:10;;;;;;;16.15;2.75;;;;;;;10.75;100.00;100460.34;5054640;28;20040;-70
2024/02/16 07:00:35;;;;;;;16.88;2.90;;;;;;;10.74;100.00;100472.59;5031189;28;20037;-70
2024/02/16 07:03:01;;;;;;;18.67;2.88;;;;;;;10.72;100.00;100474.81;5032214;28;20028;-70
2024/02/16 07:05:28;;;;;;;22.52;3.17;;;;;;;10.68;100.00;100477.38;5037191;28;20037;-70
2024/02/16 07:07:53;;;;;;;18.75;3.63;;;;;;;10.65;100.00;100485.47;5034696;28;20540;-70
2024/02/16 07:10:19;;;;;;;18.35;3.53;;;;;;;10.64;100.00;100487.44;5037319;28;20060;-70
2024/02/16 07:12:45;;;;;;;17.40;2.80;;;;;;;10.60;100.00;100499.41;5054621;28;20124;-70
2024/02/16 07:15:12;;;;;;;23.73;3.00;;;;;;;10.56;100.00;100512.22;5043126;28;20035;-70
2024/02/16 07:17:38;;;;;;;18.88;2.92;;;;;;;10.52;100.00;100523.09;5042936;28;20025;-70
2024/02/16 07:20:03;;;;;;;23.20;2.80;;;;;;;10.48;100.00;100522.03;5031094;28;20447;-70
2024/02/16 07:22:30;;;;;;;22.73;2.70;;;;;;;10.42;100.00;100529.59;5023110;28;20044;-70
2024/02/16 07:24:56;;;;;;;21.80;3.17;;;;;;;10.39;100.00;100538.50;5036267;28;20034;-70
2024/02/16 07:27:21;;;;;;;17.88;2.35;;;;;;;10.40;100.00;100547.66;5022878;28;20044;-70
2024/02/16 07:29:46;;;;;;;13.57;2.53;;;;;;;10.34;100.00;100555.22;5027398;28;20024;-70
2024/02/16 07:32:12;;;;;;;19.65;2.63;;;;;;;10.24;100.00;100567.19;5034360;28;20029;-70
2024/02/16 07:34:38;;;;;;;18.27;2.92;;;;;;;10.26;100.00;100569.69;5022038;28;20035;-70
2024/02/16 07:37:04;;;;;;;17.55;2.22;;;;;;;10.22;100.00;100579.69;5054157;28;20033;-70
2024/02/16 07:39:30;;;;;;;20.00;2.50;;;;;;;10.17;100.00;100583.34;5037522;28;20108;-70
2024/02/16 07:41:55;;;;;;;20.67;2.50;;;;;;;10.18;100.00;100586.97;5054145;28;20039;-70
2024/02/16 07:44:21;;;;;;;19.08;2.83;;;;;;;10.10;100.00;100593.13;5020744;28;20025;-70
2024/02/16 07:46:47;;;;;;;14.30;2.75;;;;;;;10.09;100.00;100606.19;5022958;28;20037;-70
2024/02/16 07:49:12;;;;;;;24.77;3.42;;;;;;;10.09;100.00;100608.13;5070796;28;20053;-70
2024/02/16 07:51:39;;;;;;;23.98;3.35;;;;;;;10.07;100.00;100611.16;5057297;28;20543;-70
2024/02/16 07:54:06;;;;;;;27.10;3.60;;;;;;;10.05;100.00;100618.94;5040329;28;20082;-70
2024/02/16 07:56:31;;;;;;;18.77;2.67;;;;;;;10.02;100.00;100613.97;5057537;28;20150;-70
2024/02/16 07:58:57;;;;;;;19.75;2.70;;;;;;;10.01;100.00;100624.25;5055053;28;20033;-70
2024/02/16 08:01:22;;;;;;;19.90;2.70;;;;;;;10.02;100.00;100625.06;5068600;28;20036;-70
2024/02/16 08:03:48;;;;;;;16.33;2.67;;;;;;;9.98;100.00;100632.34;5048787;28;20036;-70
2024/02/16 08:06:14;;;;;;;20.42;2.50;;;;;;;9.97;100.00;100636.19;5041175;28;20078;-70
2024/02/16 08:08:39;;;;;;;22.02;3.22;;;;;;;9.97;100.00;100642.59;5060981;28;20033;-70
2024/02/16 08:11:05;;;;;;;22.45;3.08;;;;;;;9.95;100.00;100642.06;5040214;28;20028;-70
2024/02/16 08:13:30;;;;;;;19.35;2.65;;;;;;;9.96;100.00;100646.47;5042949;28;20040;-70
2024/02/16 08:15:56;;;;;;;19.05;2.97;;;;;;;9.92;100.00;100648.19;5038631;28;20029;-70
2024/02/16 08:18:22;;;;;;;19.98;3.63;;;;;;;9.90;100.00;100655.94;5065271;28;20036;-70
2024/02/16 08:20:47;;;;;;;23.08;2.65;;;;;;;9.95;100.00;100642.06;5060865;28;20508;-70
2024/02/16 08:23:13;;;;;;;23.25;3.78;;;;;;;10.00;100.00;100658.69;5075511;28;20021;-70
2024/02/16 08:25:38;;;;;;;22.20;3.33;;;;;;;10.01;100.00;100668.66;5060534;28;20393;-70
2024/02/16 08:28:04;;;;;;;18.02;2.80;;;;;;;10.05;100.00;100669.72;5042743;28;20025;-70
2024/02/16 08:30:30;;;;;;;20.40;3.63;;;;;;;10.07;100.00;100673.03;5060501;28;20082;-70
2024/02/16 08:32:56;;;;;;;19.00;2.75;;;;;;;10.12;100.00;100677.75;5043491;28;20024;-70
2024/02/16 08:35:21;;;;;;;16.88;3.20;;;;;;;10.19;100.00;100685.75;5060573;28;20032;-70
2024/02/16 08:37:47;;;;;;;23.30;2.83;;;;;;;10.28;100.00;100684.06;5077039;28;20036;-70
2024/02/16 08:40:14;;;;;;;23.90;2.80;;;;;;;10.35;100.00;100692.06;5059398;28;20489;-70
2024/02/16 08:42:42;;;;;;;18.92;3.78;;;;;;;10.42;100.00;100700.88;5093123;28;20029;-70
2024/02/16 08:45:08;;;;;;;24.65;3.13;;;;;;;10.48;100.00;100706.13;5056695;28;20104;-70
2024/02/16 08:47:33;;;;;;;21.80;3.45;;;;;;;10.57;100.00;100708.28;5076569;28;20056;-70
2024/02/16 08:49:59;;;;;;;16.48;3.03;;;;;;;10.65;100.00;100713.22;5040748;28;20078;-70
2024/02/16 08:52:24;;;;;;;17.98;3.10;;;;;;;10.75;100.00;100715.91;5049699;28;20028;-70
2024/02/16 08:54:50;;;;;;;26.40;3.75;;;;;;;10.79;100.00;100728.13;5055563;28;20521;-70
2024/02/16 08:57:15;;;;;;;23.02;3.03;;;;;;;10.85;100.00;100734.47;5049579;28;20028;-70
2024/02/16 08:59:40;;;;;;;13.82;2.85;;;;;;;10.87;100.00;100735.00;5040732;28;20033;-70
2024/02/16 09:02:06;;;;;;;22.95;3.10;;;;;;;10.88;100.00;100737.47;5049397;28;20020;-70
2024/02/16 09:04:31;;;;;;;18.58;3.33;;;;;;;10.87;100.00;100740.56;5040710;28;20033;-70
2024/02/16 09:06:57;;;;;;;24.83;3.55;;;;;;;10.98;100.00;100755.16;5056667;28;20040;-70
2024/02/16 09:09:23;;;;;;;17.02;2.50;;;;;;;11.00;100.00;100753.75;5039905;28;20033;-70
2024/02/16 09:11:48;;;;;;;27.38;3.65;;;;;;;11.07;100.00;100764.56;5030998;28;20029;-70
2024/02/16 09:14:13;;;;;;;19.48;2.85;;;;;;;11.09;100.00;100760.38;5039879;28;20086;-70
2024/02/16 09:16:40;;;;;;;19.75;2.25;;;;;;;11.17;100.00;100761.69;5051164;28;20520;-70
2024/02/16 09:19:05;;;;;;;22.98;2.88;;;;;;;11.17;100.00;100767.22;5037347;28;20034;-71
2024/02/16 09:21:30;;;;;;;17.23;2.13;;;;;;;11.20;100.00;100777.81;5038468;28;20032;-70
2024/02/16 09:24:01;;;;;;;20.92;3.33;;;;;;;11.18;100.00;100785.59;5036230;28;20049;-70
2024/02/16 09:26:30;;;;;;;17.85;2.65;;;;;;;11.29;100.00;100776.03;5039623;28;20474;-70
2024/02/16 09:28:56;;;;;;;27.35;3.50;;;;;;;11.37;100.00;100783.75;5021640;28;20034;-70
2024/02/16 09:31:22;;;;;;;21.67;2.95;;;;;;;11.44;100.00;100785.34;5029149;28;20032;-70
2024/02/16 09:33:48;;;;;;;15.05;2.47;;;;;;;11.44;100.00;100790.91;5026049;28;20076;-70
2024/02/16 09:36:13;;;;;;;21.02;3.15;;;;;;;11.51;100.00;100797.78;5055858;28;20032;-70
2024/02/16 09:38:39;;;;;;;14.45;2.42;;;;;;;11.52;100.00;100796.66;5048516;28;20555;-70
2024/02/16 09:41:04;;;;;;;20.98;2.97;;;;;;;11.56;100.00;100796.91;5037395;28;20037;-70
2024/02/16 09:43:30;;;;;;;19.15;3.22;;;;;;;11.66;100.00;100795.97;5032199;28;20505;-70
2024/02/16 09:45:56;;;;;;;15.32;2.22;;;;;;;11.70;100.00;100797.88;5020257;28;20108;-70
2024/02/16 09:48:22;;;;;;;18.33;2.83;;;;;;;11.78;100.00;100800.03;5024315;28;20037;-70
2024/02/16 09:50:50;;;;;;;17.70;2.42;;;;;;;11.79;100.00;100806.41;5059445;28;20040;-71
2024/02/16 09:53:15;;;;;;;22.60;2.75;;;;;;;11.85;100.00;100811.66;5038062;28;20029;-70
2024/02/16 09:55:42;;;;;;;19.95;3.40;;;;;;;11.84;100.00;100815.53;5033127;28;20036;-70
2024/02/16 09:58:07;;;;;;;14.05;2.45;;;;;;;11.94;100.00;100816.56;5008272;28;20029;-70
2024/02/16 10:00:33;;;;;;;25.33;3.67;;;;;;;11.97;100.00;100824.31;5054705;28;20032;-70
2024/02/16 10:02:58;;;;;;;16.38;2.92;;;;;;;11.98;100.00;100832.41;5038229;28;20523;-70
2024/02/16 10:05:23;;;;;;;23.75;3.03;;;;;;;12.01;100.00;100836.53;5054590;28;20032;-70
2024/02/16 10:07:49;;;;;;;18.70;3.30;;;;;;;12.06;100.00;100833.66;5044225;28;20044;-70
2024/02/16 10:10:25;;;;;;;21.30;2.97;;;;;;;12.04;100.00;100842.34;5032791;28;20393;-70
2024/02/16 10:13:04;;;;;;;14.98;2.78;;;;;;;12.12;100.00;100843.66;5044335;28;20037;-70
2024/02/16 10:15:29;;;;;;;22.05;3.03;;;;;;;12.19;100.00;100849.69;5018616;28;20108;-70
2024/02/16 10:18:02;;;;;;;25.50;3.95;;;;;;;12.23;100.00;100850.75;5012372;28;20043;-70
2024/02/16 10:20:28;;;;;;;;;;;;;;;12.24;100.00;100865.50;5033351;28;20060;-70
2024/02/16 10:23:06;;;;;;;22.75;3.00;;;;;;;12.32;100.00;100869.59;5045405;28;20007;-71
2024/02/16 10:25:33;;;;;;;18.83;2.75;;;;;;;12.41;100.00;100862.22;5043014;28;20170;-70
2024/02/16 10:27:58;;;;;;;26.27;2.85;;;;;;;12.48;100.00;100868.25;5037287;28;20032;-70
2024/02/16 10:30:27;;;;;;;17.73;3.00;;;;;;;12.55;100.00;100874.31;5047819;28;20049;-70
2024/02/16 10:32:52;;;;;;;18.42;2.45;;;;;;;12.57;100.00;100872.06;5044987;28;20036;-70
2024/02/16 10:35:18;;;;;;;21.05;3.08;;;;;;;12.55;100.00;100873.47;5021282;28;20037;-70
2024/02/16 10:37:44;;;;;;;20.52;2.33;;;;;;;12.54;100.00;100875.44;5047901;28;20039;-70
2024/02/16 10:40:13;;;;;;;16.10;2.05;;;;;;;12.63;100.00;100884.78;5023957;28;20036;-70
2024/02/16 10:42:39;;;;;;;17.00;2.22;;;;;;;12.68;100.00;100889.47;5022471;28;20039;-70
2024/02/16 10:45:05;;;;;;;14.80;2.17;;;;;;;12.64;100.00;100900.38;5032364;28;20033;-70
2024/02/16 10:47:30;;;;;;;15.52;1.67;;;;;;;12.79;100.00;100901.28;5056620;28;20519;-70
2024/02/16 10:49:56;;;;;;;11.50;1.95;;;;;;;12.87;100.00;100903.41;5058057;28;20060;-71
2024/02/16 10:52:21;;;;;;;11.90;1.88;;;;;;;12.90;100.00;100909.22;5055965;28;20439;-70
2024/02/16 10:54:47;;;;;;;13.77;2.08;;;;;;;12.89;100.00;100913.13;5074301;28;20029;-71
2024/02/16 10:57:13;;;;;;;13.80;1.75;;;;;;;12.98;100.00;100913.28;5057500;28;20033;-71
2024/02/16 10:59:44;;;;;;;12.57;2.08;;;;;;;13.10;100.00;100922.03;5074610;28;20039;-70
2024/02/16 11:02:09;;;;;;;14.75;1.88;;;;;;;13.15;100.00;100910.81;5041063;28;20088;-71
2024/02/16 11:04:41;;;;;;;10.98;1.60;;;;;;;13.26;100.00;100908.75;5030413;28;20031;-71
2024/02/16 11:07:11;;;;;;;11.40;2.13;;;;;;;13.43;100.00;100922.16;5064755;28;20100;-71
2024/02/16 11:09:39;;;;;;;10.55;1.58;;;;;;;13.52;100.00;100914.75;5074544;28;20033;-71